Time;durP1;ratioP1;P1;durP2;ratioP2;P2;SDS_P1;SDS_P2;PMS_P1;PMS_P2;Temp;Humidity;BMP_temperature;BMP_pressure;BME280_temperature;BME280_humidity;BME280_pressure;Samples;Min_cycle;Max_cycle;Signal;HPM_P1;HPM_P2
2022/04/25 00:01:31;;;;;;;27.13;6.18;;;;;;;;;;5073399;28;20028;-72
2022/04/25 00:03:56;;;;;;;19.10;4.70;;;;;;;;;;5074759;28;20040;-72
2022/04/25 00:06:22;;;;;;;33.75;6.32;;;;;;;;;;5075096;28;20126;-72
2022/04/25 00:08:47;;;;;;;22.90;5.50;;;;;;;;;;5074040;28;20396;-73
2022/04/25 00:11:12;;;;;;;20.75;4.25;;;;;;;;;;5075354;28;20024;-75
2022/04/25 00:13:38;;;;;;;21.38;3.72;;;;;;;;;;5076042;28;20476;-73
2022/04/25 00:16:03;;;;;;;23.58;5.40;;;;;;;;;;5075378;28;20031;-79
2022/04/25 00:18:29;;;;;;;28.48;5.72;;;;;;;;;;5074228;28;20036;-73
2022/04/25 00:20:55;;;;;;;30.13;5.05;;;;;;;;;;5075656;28;20127;-76
2022/04/25 00:23:20;;;;;;;21.80;4.97;;;;;;;;;;5075633;28;20028;-73
2022/04/25 00:25:46;;;;;;;29.90;6.95;;;;;;;;;;5074138;28;20415;-73
2022/04/25 00:28:11;;;;;;;30.08;6.43;;;;;;;;;;5075144;28;20327;-80
2022/04/25 00:30:36;;;;;;;21.95;6.05;;;;;;;;;;5075475;28;20512;-74
2022/04/25 00:33:02;;;;;;;26.08;5.47;;;;;;;;;;5074378;28;20182;-77
2022/04/25 00:35:27;;;;;;;22.67;5.63;;;;;;;;;;5074697;28;20059;-75
2022/04/25 00:37:53;;;;;;;29.67;6.47;;;;;;;;;;5073751;28;20105;-73
2022/04/25 00:40:20;;;;;;;29.02;6.70;;;;;;;;;;5074570;28;20028;-74
2022/04/25 00:42:46;;;;;;;26.48;6.55;;;;;;;;;;5074425;28;20071;-72
2022/04/25 00:45:12;;;;;;;25.65;7.10;;;;;;;;;;5074154;28;20059;-75
2022/04/25 00:47:38;;;;;;;23.55;6.72;;;;;;;;;;5072196;28;20397;-75
2022/04/25 00:50:03;;;;;;;22.77;4.80;;;;;;;;;;5075367;28;20024;-79
2022/04/25 00:52:29;;;;;;;20.05;3.50;;;;;;;;;;5056462;28;20032;-76
2022/04/25 00:54:54;;;;;;;15.30;4.25;;;;;;;;;;5074538;28;20340;-72
2022/04/25 00:57:20;;;;;;;16.30;3.65;;;;;;;;;;5074316;28;20028;-75
2022/04/25 00:59:46;;;;;;;20.40;4.75;;;;;;;;;;5074458;28;20106;-75
2022/04/25 01:02:11;;;;;;;26.25;7.82;;;;;;;;;;5074154;28;20126;-72
2022/04/25 01:04:36;;;;;;;26.70;7.88;;;;;;;;;;5074401;28;20154;-77
2022/04/25 01:07:02;;;;;;;26.02;5.57;;;;;;;;;;5074269;28;20028;-74
2022/04/25 01:09:27;;;;;;;16.63;4.72;;;;;;;;;;5073933;28;20314;-76
2022/04/25 01:11:52;;;;;;;16.60;3.63;;;;;;;;;;5074295;28;20077;-73
2022/04/25 01:14:19;;;;;;;18.80;4.18;;;;;;;;;;5078326;28;20082;-72
2022/04/25 01:16:45;;;;;;;16.25;4.50;;;;;;;;;;5076663;28;20070;-72
2022/04/25 01:19:10;;;;;;;18.02;4.20;;;;;;;;;;5078118;28;20007;-77
2022/04/25 01:21:40;;;;;;;17.67;4.55;;;;;;;;;;5076407;28;20031;-74
2022/04/25 01:29:36;;;;;;;16.50;4.22;;;;;;;;;;5078019;28;20093;-72
2022/04/25 01:32:01;;;;;;;21.58;4.20;;;;;;;;;;5077095;28;20418;-76
2022/04/25 01:34:26;;;;;;;24.52;4.05;;;;;;;;;;5078201;28;20056;-71
2022/04/25 01:36:52;;;;;;;14.00;3.10;;;;;;;;;;5059934;28;20020;-77
2022/04/25 01:39:17;;;;;;;23.50;3.50;;;;;;;;;;5076722;28;20292;-76
2022/04/25 01:41:42;;;;;;;19.48;3.50;;;;;;;;;;5060488;28;20355;-75
2022/04/25 01:44:08;;;;;;;20.30;2.90;;;;;;;;;;5077602;28;20393;-72
2022/04/25 01:46:33;;;;;;;13.85;3.53;;;;;;;;;;5078070;28;20032;-80
2022/04/25 01:48:59;;;;;;;14.43;3.58;;;;;;;;;;5076885;28;20024;-73
2022/04/25 01:51:24;;;;;;;18.85;3.58;;;;;;;;;;5077432;28;20119;-77
2022/04/25 01:53:49;;;;;;;29.83;3.50;;;;;;;;;;5078285;28;20358;-73
2022/04/25 01:56:15;;;;;;;19.02;3.33;;;;;;;;;;5077713;28;20028;-75
2022/04/25 01:58:40;;;;;;;18.42;3.50;;;;;;;;;;5077958;28;20036;-74
2022/04/25 02:01:06;;;;;;;21.42;3.30;;;;;;;;;;5077744;28;20097;-72
2022/04/25 02:03:33;;;;;;;21.35;4.82;;;;;;;;;;5078012;28;20032;-72
2022/04/25 02:05:59;;;;;;;22.35;4.30;;;;;;;;;;5078098;28;20048;-75
2022/04/25 02:08:24;;;;;;;17.98;4.40;;;;;;;;;;5077877;28;20039;-73
2022/04/25 02:11:19;;;;;;;16.42;3.55;;;;;;;;;;5077466;28;20028;-78
2022/04/25 02:13:34;;;;;;;17.85;4.15;;;;;;;;;;5077581;28;20040;-74
2022/04/25 02:16:01;;;;;;;12.02;3.75;;;;;;;;;;5077134;28;20477;-74
2022/04/25 02:18:26;;;;;;;13.60;2.83;;;;;;;;;;5076105;28;20023;-78
2022/04/25 02:20:52;;;;;;;19.55;3.28;;;;;;;;;;5077153;28;20024;-71
2022/04/25 02:23:17;;;;;;;12.55;2.60;;;;;;;;;;5076920;28;20032;-77
2022/04/25 02:25:42;;;;;;;15.68;4.47;;;;;;;;;;5074863;28;20027;-71
2022/04/25 02:28:08;;;;;;;18.35;5.38;;;;;;;;;;5075872;28;20032;-70
2022/04/25 02:30:33;;;;;;;24.63;6.68;;;;;;;;;;5077307;28;20028;-71
2022/04/25 02:32:58;;;;;;;17.80;5.85;;;;;;;;;;5075936;28;20032;-76
2022/04/25 02:35:23;;;;;;;22.90;6.88;;;;;;;;;;5076296;28;20331;-74
2022/04/25 02:37:49;;;;;;;22.20;5.68;;;;;;;;;;5076037;28;20067;-73
2022/04/25 02:40:14;;;;;;;19.80;5.43;;;;;;;;;;5076963;28;20120;-80
2022/04/25 02:42:41;;;;;;;14.80;4.10;;;;;;;;;;5076740;28;20039;-75
2022/04/25 02:45:07;;;;;;;13.68;3.58;;;;;;;;;;5076411;28;20131;-73
2022/04/25 02:47:32;;;;;;;19.98;4.05;;;;;;;;;;5076374;28;20494;-74
2022/04/25 02:49:57;;;;;;;18.38;4.75;;;;;;;;;;5075679;28;20016;-71
2022/04/25 02:52:23;;;;;;;13.07;4.28;;;;;;;;;;5075924;28;20474;-71
2022/04/25 02:54:48;;;;;;;18.15;3.55;;;;;;;;;;5076584;28;20110;-76
2022/04/25 02:57:13;;;;;;;13.50;3.17;;;;;;;;;;5075935;28;20034;-74
2022/04/25 02:59:39;;;;;;;12.65;2.78;;;;;;;;;;5076388;28;20118;-72
2022/04/25 03:02:04;;;;;;;14.73;4.60;;;;;;;;;;5077334;28;20028;-72
2022/04/25 03:04:29;;;;;;;24.63;8.55;;;;;;;;;;5076300;28;20060;-79
2022/04/25 03:06:54;;;;;;;30.67;11.00;;;;;;;;;;5076623;28;20024;-75
2022/04/25 03:09:21;;;;;;;21.23;8.07;;;;;;;;;;5075845;28;20035;-73
2022/04/25 03:11:47;;;;;;;34.80;11.90;;;;;;;;;;5075637;28;20055;-72
2022/04/25 03:14:12;;;;;;;32.80;9.10;;;;;;;;;;5076613;28;20070;-79
2022/04/25 03:16:37;;;;;;;25.50;8.80;;;;;;;;;;5075085;28;20040;-73
2022/04/25 03:19:03;;;;;;;22.83;6.70;;;;;;;;;;5076622;28;20035;-72
2022/04/25 03:21:28;;;;;;;13.98;5.05;;;;;;;;;;5075977;28;21211;-78
2022/04/25 03:23:54;;;;;;;8.95;3.10;;;;;;;;;;5076652;28;20040;-76
2022/04/25 03:26:19;;;;;;;20.08;3.08;;;;;;;;;;5076230;28;20024;-76
2022/04/25 03:28:45;;;;;;;13.88;3.65;;;;;;;;;;5074927;28;20097;-78
2022/04/25 03:31:10;;;;;;;15.13;6.40;;;;;;;;;;5074201;28;20032;-73
2022/04/25 03:33:36;;;;;;;23.02;8.38;;;;;;;;;;5076035;28;20127;-80
2022/04/25 03:36:02;;;;;;;24.48;8.65;;;;;;;;;;5056376;28;20020;-75
2022/04/25 03:38:28;;;;;;;18.63;4.30;;;;;;;;;;5074874;28;20418;-82
2022/04/25 03:40:54;;;;;;;7.07;2.78;;;;;;;;;;5074878;28;20027;-75
2022/04/25 03:43:19;;;;;;;13.10;2.38;;;;;;;;;;5075040;28;20035;-77
2022/04/25 03:45:45;;;;;;;10.55;2.20;;;;;;;;;;5075490;28;20488;-73
2022/04/25 03:48:10;;;;;;;11.63;3.33;;;;;;;;;;5075163;28;20496;-72
2022/04/25 03:50:35;;;;;;;19.25;7.28;;;;;;;;;;5075254;28;20024;-72
2022/04/25 03:53:05;;;;;;;16.30;8.23;;;;;;;;;;5075118;28;20031;-72
2022/04/25 03:58:14;;;;;;;20.23;5.88;;;;;;;;;;5075970;28;21117;-72
2022/04/25 04:00:39;;;;;;;12.68;5.55;;;;;;;;;;5074837;28;20028;-79
2022/04/25 04:03:04;;;;;;;15.93;7.57;;;;;;;;;;5075609;28;20327;-75
2022/04/25 04:05:30;;;;;;;16.33;6.30;;;;;;;;;;5076079;28;20051;-72
2022/04/25 04:07:55;;;;;;;13.93;5.72;;;;;;;;;;5075551;28;20028;-76
2022/04/25 04:10:21;;;;;;;13.52;5.63;;;;;;;;;;5075484;28;20024;-75
2022/04/25 04:12:46;;;;;;;14.93;6.32;;;;;;;;;;5074274;28;20051;-79
2022/04/25 04:15:13;;;;;;;11.18;6.65;;;;;;;;;;5075286;28;20522;-77
2022/04/25 04:17:38;;;;;;;16.77;8.15;;;;;;;;;;5074831;28;20124;-74
2022/04/25 04:20:04;;;;;;;37.90;19.10;;;;;;;;;;5075074;28;20066;-75
2022/04/25 04:22:30;;;;;;;60.78;35.33;;;;;;;;;;5074438;28;20036;-79
2022/04/25 04:25:02;;;;;;;42.45;23.55;;;;;;;;;;5073690;28;20358;-76
2022/04/25 04:27:31;;;;;;;35.58;21.27;;;;;;;;;;5075159;28;20209;-74
2022/04/25 04:29:57;;;;;;;40.00;18.27;;;;;;;;;;5074146;28;20331;-82
2022/04/25 04:32:22;;;;;;;15.30;7.32;;;;;;;;;;5072948;28;20450;-78
2022/04/25 04:34:48;;;;;;;15.15;5.13;;;;;;;;;;5074549;28;20023;-71
2022/04/25 04:37:13;;;;;;;13.75;4.22;;;;;;;;;;5075392;28;20051;-81
2022/04/25 04:39:39;;;;;;;10.80;4.43;;;;;;;;;;5074830;28;20410;-71
2022/04/25 04:42:04;;;;;;;12.05;3.20;;;;;;;;;;5073662;28;20062;-71
2022/04/25 04:44:30;;;;;;;12.55;3.30;;;;;;;;;;5075241;28;20158;-72
2022/04/25 04:46:55;;;;;;;9.90;3.40;;;;;;;;;;5074831;28;20327;-72
2022/04/25 04:49:20;;;;;;;11.00;3.55;;;;;;;;;;5078716;28;20032;-76
2022/04/25 04:51:45;;;;;;;8.88;4.63;;;;;;;;;;5078395;28;20165;-74
2022/04/25 04:54:11;;;;;;;15.05;4.22;;;;;;;;;;5078898;28;20024;-72
2022/04/25 04:56:36;;;;;;;15.70;5.18;;;;;;;;;;5060508;28;20157;-80
2022/04/25 04:59:02;;;;;;;14.95;7.30;;;;;;;;;;5079260;28;20035;-79
2022/04/25 05:01:28;;;;;;;19.10;8.93;;;;;;;;;;5077848;28;20116;-74
2022/04/25 05:03:55;;;;;;;20.35;6.57;;;;;;;;;;5078110;28;20231;-73
2022/04/25 05:06:20;;;;;;;13.30;6.00;;;;;;;;;;5079087;28;20028;-79
2022/04/25 05:08:45;;;;;;;16.35;5.05;;;;;;;;;;5077383;28;20200;-74
2022/04/25 05:11:11;;;;;;;15.70;4.65;;;;;;;;;;5078314;28;20028;-73
2022/04/25 05:13:36;;;;;;;8.57;4.40;;;;;;;;;;5078510;28;20450;-77
2022/04/25 05:16:02;;;;;;;12.07;7.00;;;;;;;;;;5078666;28;20100;-72
2022/04/25 05:18:28;;;;;;;15.55;8.80;;;;;;;;;;5078307;28;20303;-73
2022/04/25 05:20:54;;;;;;;15.65;8.30;;;;;;;;;;5078123;28;20422;-71
2022/04/25 05:23:19;;;;;;;17.10;8.18;;;;;;;;;;5077690;28;20028;-72
2022/04/25 05:25:45;;;;;;;27.88;14.32;;;;;;;;;;5078628;28;20078;-77
2022/04/25 05:28:10;;;;;;;28.15;15.55;;;;;;;;;;5078507;28;20351;-77
2022/04/25 05:30:35;;;;;;;32.10;14.40;;;;;;;;;;5078765;28;20096;-82
2022/04/25 05:33:04;;;;;;;19.30;9.68;;;;;;;;;;5078232;28;20036;-73
2022/04/25 05:35:30;;;;;;;16.10;5.47;;;;;;;;;;5077793;28;20050;-72
2022/04/25 05:37:56;;;;;;;11.95;5.75;;;;;;;;;;5077442;28;20395;-77
2022/04/25 05:40:22;;;;;;;18.40;7.32;;;;;;;;;;5077580;28;20032;-82
2022/04/25 05:42:48;;;;;;;19.85;9.05;;;;;;;;;;5078212;28;20411;-79
2022/04/25 05:45:14;;;;;;;14.63;6.25;;;;;;;;;;5077853;28;20024;-71
2022/04/25 05:47:40;;;;;;;19.55;7.32;;;;;;;;;;5078047;28;20028;-78
2022/04/25 05:52:50;;;;;;;16.55;6.43;;;;;;;;;;5076349;28;20039;-72
2022/04/25 05:55:16;;;;;;;14.90;3.58;;;;;;;;;;5077437;28;20031;-72
2022/04/25 05:57:41;;;;;;;14.93;4.05;;;;;;;;;;5077179;28;20024;-77
2022/04/25 06:00:08;;;;;;;17.42;5.40;;;;;;;;;;5076279;28;20016;-73
2022/04/25 06:02:39;;;;;;;15.43;5.55;;;;;;;;;;5075915;28;20040;-74
2022/04/25 06:05:05;;;;;;;15.55;5.22;;;;;;;;;;5076559;28;20404;-75
2022/04/25 06:07:32;;;;;;;13.07;4.30;;;;;;;;;;5077675;28;20036;-75
2022/04/25 06:09:57;;;;;;;13.07;3.92;;;;;;;;;;5077602;28;20048;-72
2022/04/25 06:12:22;;;;;;;13.30;4.10;;;;;;;;;;5076746;28;20078;-71
2022/04/25 06:14:48;;;;;;;10.63;3.10;;;;;;;;;;5076042;28;20130;-72
2022/04/25 06:17:15;;;;;;;12.93;3.58;;;;;;;;;;5075902;28;20131;-71
2022/04/25 06:19:40;;;;;;;6.63;3.00;;;;;;;;;;5077703;28;20093;-81
2022/04/25 06:22:05;;;;;;;8.02;3.78;;;;;;;;;;5076625;28;20036;-73
2022/04/25 06:24:31;;;;;;;9.32;2.75;;;;;;;;;;5077416;28;20020;-72
2022/04/25 06:26:57;;;;;;;10.73;3.03;;;;;;;;;;5077664;28;20127;-72
2022/04/25 06:29:24;;;;;;;9.32;4.32;;;;;;;;;;5076287;28;20035;-72
2022/04/25 06:31:49;;;;;;;11.13;3.20;;;;;;;;;;5076133;28;20063;-77
2022/04/25 06:34:15;;;;;;;8.30;3.33;;;;;;;;;;5076537;28;20418;-73
2022/04/25 06:36:41;;;;;;;8.65;2.28;;;;;;;;;;5076607;28;20031;-73
2022/04/25 06:39:07;;;;;;;10.38;1.98;;;;;;;;;;5077422;28;20028;-73
2022/04/25 06:41:33;;;;;;;5.43;1.48;;;;;;;;;;5077185;28;20036;-74
2022/04/25 06:43:59;;;;;;;12.20;2.03;;;;;;;;;;5075376;28;20060;-78
2022/04/25 06:46:29;;;;;;;7.15;2.33;;;;;;;;;;5076346;28;20445;-81
2022/04/25 06:51:38;;;;;;;10.45;2.10;;;;;;;;;;5077120;28;20034;-72
2022/04/25 06:54:03;;;;;;;9.77;4.15;;;;;;;;;;5076252;28;20036;-79
2022/04/25 06:56:29;;;;;;;9.05;2.78;;;;;;;;;;5076088;28;20020;-73
2022/04/25 06:58:54;;;;;;;10.40;2.78;;;;;;;;;;5077049;28;20028;-76
2022/04/25 07:01:20;;;;;;;9.43;2.97;;;;;;;;;;5076054;28;20351;-76
2022/04/25 07:03:45;;;;;;;11.23;2.08;;;;;;;;;;5075731;28;20445;-73
2022/04/25 07:06:10;;;;;;;4.75;1.80;;;;;;;;;;5076351;28;20044;-72
2022/04/25 07:08:36;;;;;;;11.80;2.20;;;;;;;;;;5076618;28;20038;-73
2022/04/25 07:11:01;;;;;;;10.80;2.53;;;;;;;;;;5076059;28;20023;-72
2022/04/25 07:13:26;;;;;;;7.28;1.63;;;;;;;;;;5058561;28;20040;-78
2022/04/25 07:15:52;;;;;;;13.32;2.35;;;;;;;;;;5075681;28;20089;-74
2022/04/25 07:18:17;;;;;;;9.73;2.00;;;;;;;;;;5075201;28;20114;-73
2022/04/25 07:20:42;;;;;;;9.77;2.00;;;;;;;;;;5075391;28;20302;-79
2022/04/25 07:28:58;;;;;;;4.47;1.42;;;;;;;;;;5075670;28;20039;-75
2022/04/25 07:31:23;;;;;;;6.57;1.48;;;;;;;;;;5076069;28;20339;-74
2022/04/25 07:33:48;;;;;;;8.48;2.05;;;;;;;;;;5075460;28;20493;-73
2022/04/25 07:36:18;;;;;;;8.10;2.35;;;;;;;;;;5074133;28;20035;-74
2022/04/25 07:38:44;;;;;;;10.63;1.90;;;;;;;;;;5076177;28;20507;-76
2022/04/25 07:41:10;;;;;;;8.52;1.75;;;;;;;;;;5075188;28;20019;-74
2022/04/25 07:43:35;;;;;;;9.40;2.45;;;;;;;;;;5076023;28;20043;-75
2022/04/25 07:46:01;;;;;;;7.47;1.70;;;;;;;;;;5075940;28;20359;-76
2022/04/25 07:48:26;;;;;;;8.85;2.10;;;;;;;;;;5081491;28;20127;-74
2022/04/25 07:50:52;;;;;;;7.60;1.83;;;;;;;;;;5089684;28;20023;-74
2022/04/25 07:53:17;;;;;;;6.80;1.95;;;;;;;;;;5089641;28;20404;-74
2022/04/25 07:55:42;;;;;;;7.57;2.50;;;;;;;;;;5089568;28;20431;-73
2022/04/25 07:58:08;;;;;;;10.02;1.63;;;;;;;;;;5089774;28;20031;-74
2022/04/25 08:00:35;;;;;;;4.93;1.70;;;;;;;;;;5089480;28;20027;-76
2022/04/25 08:03:00;;;;;;;8.52;2.25;;;;;;;;;;5089814;28;20043;-74
2022/04/25 08:05:25;;;;;;;6.20;1.58;;;;;;;;;;5089234;28;20332;-74
2022/04/25 08:07:51;;;;;;;12.20;1.77;;;;;;;;;;5089249;28;20096;-77
2022/04/25 08:10:16;;;;;;;9.27;2.60;;;;;;;;;;5088956;28;20416;-75
2022/04/25 08:18:11;;;;;;;8.88;1.83;;;;;;;;;;5088333;28;20039;-73
2022/04/25 08:20:37;;;;;;;5.95;1.33;;;;;;;;;;5088414;28;20020;-74
2022/04/25 08:23:04;;;;;;;5.38;1.77;;;;;;;;;;5089070;28;20028;-74
2022/04/25 08:25:32;;;;;;;4.70;3.17;;;;;;;;;;5089339;28;20055;-75
2022/04/25 08:27:58;;;;;;;7.40;3.00;;;;;;;;;;5087645;28;20498;-75
2022/04/25 08:30:23;;;;;;;7.38;3.80;;;;;;;;;;5087372;28;20172;-76
2022/04/25 08:32:49;;;;;;;5.93;1.30;;;;;;;;;;5088116;28;20028;-76
2022/04/25 08:35:14;;;;;;;3.13;1.17;;;;;;;;;;5089976;28;20039;-77
2022/04/25 08:37:40;;;;;;;8.77;4.43;;;;;;;;;;5089431;28;20125;-75
2022/04/25 08:40:06;;;;;;;15.30;11.13;;;;;;;;;;5088882;28;20101;-77
2022/04/25 08:42:31;;;;;;;9.00;3.00;;;;;;;;;;5088986;28;20534;-77
2022/04/25 08:44:58;;;;;;;6.15;3.20;;;;;;;;;;5089492;28;20109;-74
2022/04/25 08:47:26;;;;;;;7.18;4.78;;;;;;;;;;5088546;28;20217;-76
2022/04/25 08:49:51;;;;;;;3.03;1.52;;;;;;;;;;5088421;28;20084;-74
2022/04/25 08:52:17;;;;;;;4.18;1.35;;;;;;;;;;5081267;28;20139;-80
2022/04/25 08:54:43;;;;;;;3.05;1.20;;;;;;;;;;5081333;28;20040;-75
2022/04/25 08:57:09;;;;;;;8.63;1.60;;;;;;;;;;5080441;28;20164;-74
2022/04/25 08:59:34;;;;;;;5.47;2.40;;;;;;;;;;5079993;28;20437;-75
2022/04/25 09:01:59;;;;;;;7.95;2.30;;;;;;;;;;5082171;28;20031;-73
2022/04/25 09:04:25;;;;;;;13.80;3.20;;;;;;;;;;5080674;28;20079;-75
2022/04/25 09:06:51;;;;;;;3.13;1.17;;;;;;;;;;5081516;28;20111;-74
2022/04/25 09:09:17;;;;;;;5.35;1.75;;;;;;;;;;5081634;28;20032;-75
2022/04/25 09:14:26;;;;;;;7.63;2.70;;;;;;;;;;5081030;28;20070;-76
2022/04/25 09:16:52;;;;;;;10.57;3.72;;;;;;;;;;5063804;28;20063;-77
2022/04/25 09:19:17;;;;;;;15.20;3.55;;;;;;;;;;5081580;28;20020;-74
2022/04/25 09:21:44;;;;;;;10.57;2.70;;;;;;;;;;5081369;28;20036;-77
2022/04/25 09:24:20;;;;;;;14.75;5.03;;;;;;;;;;5080141;28;20073;-77
2022/04/25 09:26:45;;;;;;;7.55;2.83;;;;;;;;;;5063216;28;20401;-75
2022/04/25 09:29:11;;;;;;;11.45;3.80;;;;;;;;;;5081032;28;20024;-76
2022/04/25 09:31:46;;;;;;;10.85;3.45;;;;;;;;;;5081467;28;20024;-78
2022/04/25 09:34:15;;;;;;;8.70;1.63;;;;;;;;;;5081497;28;20028;-74
2022/04/25 09:36:47;;;;;;;8.38;2.28;;;;;;;;;;5086020;28;20032;-74
2022/04/25 09:39:28;;;;;;;8.80;2.20;;;;;;;;;;5084839;28;20068;-74
2022/04/25 09:41:53;;;;;;;5.30;1.40;;;;;;;;;;5084550;28;20093;-76
2022/04/25 09:44:19;;;;;;;9.75;2.78;;;;;;;;;;5085107;28;20443;-77
2022/04/25 09:46:47;;;;;;;9.10;1.55;;;;;;;;;;5084594;28;20493;-75
2022/04/25 09:49:18;;;;;;;6.55;1.88;;;;;;;;;;5084155;28;20052;-76
2022/04/25 09:51:58;;;;;;;9.60;2.80;;;;;;;;;;5083928;28;20040;-75
2022/04/25 09:54:24;;;;;;;9.00;2.10;;;;;;;;;;5084702;28;20423;-74
2022/04/25 09:56:51;;;;;;;8.00;1.40;;;;;;;;;;5082413;28;20344;-75
2022/04/25 09:59:16;;;;;;;9.10;1.50;;;;;;;;;;5084526;28;20480;-76
2022/04/25 10:01:43;;;;;;;4.93;1.88;;;;;;;;;;5082116;28;20028;-77
2022/04/25 10:04:27;;;;;;;4.80;0.90;;;;;;;;;;5083825;28;20058;-75
2022/04/25 10:06:54;;;;;;;2.58;0.93;;;;;;;;;;5083757;28;20115;-77
2022/04/25 10:09:20;;;;;;;5.15;1.10;;;;;;;;;;5084331;28;20118;-75
2022/04/25 10:11:47;;;;;;;2.33;0.73;;;;;;;;;;5083912;28;20047;-75
2022/04/25 10:14:12;;;;;;;4.78;0.93;;;;;;;;;;5083009;28;20039;-75
2022/04/25 10:16:37;;;;;;;3.92;0.85;;;;;;;;;;5083501;28;20452;-76
2022/04/25 10:19:03;;;;;;;3.42;1.10;;;;;;;;;;5083632;28;20020;-75
2022/04/25 10:21:29;;;;;;;4.13;0.95;;;;;;;;;;5084041;28;20128;-77
2022/04/25 10:23:55;;;;;;;4.28;1.00;;;;;;;;;;5083881;28;20641;-75
2022/04/25 10:26:25;;;;;;;8.75;1.38;;;;;;;;;;5084416;28;20038;-75
2022/04/25 10:29:11;;;;;;;4.20;1.20;;;;;;;;;;5083285;28;20026;-75
2022/04/25 10:31:43;;;;;;;2.75;1.08;;;;;;;;;;5082628;28;20028;-75
2022/04/25 10:34:09;;;;;;;2.90;1.10;;;;;;;;;;5084478;28;20395;-75
2022/04/25 10:36:38;;;;;;;6.60;1.50;;;;;;;;;;5083728;28;20027;-77
2022/04/25 10:39:09;;;;;;;6.70;1.50;;;;;;;;;;5083686;28;20858;-76
2022/04/25 10:44:18;;;;;;;4.25;1.67;;;;;;;;;;5083431;28;20469;-77
2022/04/25 10:47:02;;;;;;;4.32;1.67;;;;;;;;;;5082792;28;20095;-75
2022/04/25 10:49:31;;;;;;;5.28;1.50;;;;;;;;;;5083381;28;20580;-76
2022/04/25 10:51:57;;;;;;;3.40;1.48;;;;;;;;;;5084129;28;20431;-77
2022/04/25 10:54:27;;;;;;;5.50;1.80;;;;;;;;;;5083214;28;20066;-75
2022/04/25 10:57:08;;;;;;;5.05;1.52;;;;;;;;;;5083244;28;20783;-76
2022/04/25 10:59:34;;;;;;;3.28;1.05;;;;;;;;;;5083420;28;20023;-74
2022/04/25 11:01:59;;;;;;;5.47;1.52;;;;;;;;;;5082620;28;20038;-75
2022/04/25 11:04:24;;;;;;;7.38;1.48;;;;;;;;;;5081179;28;20172;-75
2022/04/25 11:07:10;;;;;;;7.03;1.80;;;;;;;;;;5064865;28;20028;-76
2022/04/25 11:09:36;;;;;;;4.65;1.25;;;;;;;;;;5074942;28;20048;-76
2022/04/25 11:12:02;;;;;;;3.80;1.20;;;;;;;;;;5082897;28;20066;-76
2022/04/25 11:14:30;;;;;;;4.35;0.82;;;;;;;;;;5082650;28;20124;-77
2022/04/25 11:17:26;;;;;;;3.20;1.10;;;;;;;;;;5082257;28;20016;-75
2022/04/25 11:19:54;;;;;;;6.28;1.30;;;;;;;;;;5073488;28;20339;-75
2022/04/25 11:22:31;;;;;;;5.28;0.93;;;;;;;;;;5081209;28;20028;-76
2022/04/25 11:24:57;;;;;;;6.20;1.58;;;;;;;;;;5081186;28;20024;-77
2022/04/25 11:27:22;;;;;;;3.67;0.93;;;;;;;;;;5083035;28;20043;-79
2022/04/25 11:30:07;;;;;;;3.13;0.90;;;;;;;;;;5081728;28;20046;-73
2022/04/25 11:32:38;;;;;;;2.10;0.90;;;;;;;;;;5082705;28;20032;-76
2022/04/25 11:35:04;;;;;;;7.88;1.88;;;;;;;;;;5082430;28;20020;-75
2022/04/25 11:37:30;;;;;;;6.30;1.15;;;;;;;;;;5082624;28;20038;-76
2022/04/25 11:40:00;;;;;;;5.43;1.33;;;;;;;;;;5082068;28;20024;-76
2022/04/25 11:42:27;;;;;;;3.20;0.95;;;;;;;;;;5081552;28;20051;-74
2022/04/25 11:44:52;;;;;;;5.75;1.20;;;;;;;;;;5082914;28;20027;-76
2022/04/25 11:47:21;;;;;;;4.45;1.80;;;;;;;;;;5081063;28;20031;-74
2022/04/25 11:49:46;;;;;;;2.80;1.13;;;;;;;;;;5081920;28;20389;-76
2022/04/25 11:52:20;;;;;;;5.22;1.08;;;;;;;;;;5082823;28;20535;-77
2022/04/25 11:54:45;;;;;;;5.78;1.50;;;;;;;;;;5082664;28;20032;-76
2022/04/25 11:57:10;;;;;;;6.00;1.73;;;;;;;;;;5081074;28;20362;-75
2022/04/25 11:59:36;;;;;;;4.43;2.72;;;;;;;;;;5082909;28;20086;-77
2022/04/25 12:02:02;;;;;;;6.43;1.15;;;;;;;;;;5082380;28;20403;-76
2022/04/25 12:04:28;;;;;;;3.72;1.10;;;;;;;;;;5082280;28;20063;-76
2022/04/25 12:06:53;;;;;;;3.05;1.20;;;;;;;;;;5080424;28;20024;-75
2022/04/25 12:17:36;;;;;;;3.00;1.00;;;;;;;;;;5081673;28;20066;-76
2022/04/25 12:20:04;;;;;;;3.95;1.48;;;;;;;;;;5081368;28;20032;-76
2022/04/25 12:22:29;;;;;;;5.35;1.50;;;;;;;;;;5081663;28;20032;-75
2022/04/25 12:25:30;;;;;;;3.35;1.20;;;;;;;;;;5080345;28;20355;-77
2022/04/25 12:28:07;;;;;;;7.32;1.77;;;;;;;;;;5036693;28;20537;-75
2022/04/25 12:30:44;;;;;;;4.88;1.30;;;;;;;;;;5075492;28;20523;-76
2022/04/25 12:33:10;;;;;;;4.20;0.90;;;;;;;;;;5081494;28;20038;-75
2022/04/25 12:35:36;;;;;;;3.75;1.30;;;;;;;;;;5080961;28;20025;-74
2022/04/25 12:38:05;;;;;;;4.22;1.27;;;;;;;;;;5081290;28;20030;-75
2022/04/25 12:40:31;;;;;;;;;;;;;;;;;;5080613;28;20028;-77
2022/04/25 12:42:56;;;;;;;3.95;1.15;;;;;;;;;;5080806;28;19912;-74
2022/04/25 12:45:22;;;;;;;3.47;1.08;;;;;;;;;;5082420;28;20040;-79
2022/04/25 12:47:55;;;;;;;3.38;1.15;;;;;;;;;;5064764;28;20381;-76
2022/04/25 12:50:42;;;;;;;4.13;1.10;;;;;;;;;;5081589;28;20028;-74
2022/04/25 12:53:07;;;;;;;4.30;0.93;;;;;;;;;;5080343;28;20032;-75
2022/04/25 12:55:49;;;;;;;3.70;1.17;;;;;;;;;;5082337;28;20113;-75
2022/04/25 12:58:16;;;;;;;3.83;1.05;;;;;;;;;;5081632;28;20466;-74
2022/04/25 13:00:47;;;;;;;3.60;1.80;;;;;;;;;;5081007;28;20024;-75
2022/04/25 13:03:13;;;;;;;5.65;1.40;;;;;;;;;;5081477;28;20020;-75
2022/04/25 13:05:39;;;;;;;5.78;1.50;;;;;;;;;;5081798;28;20048;-76
2022/04/25 13:08:04;;;;;;;5.18;1.25;;;;;;;;;;5082332;28;20467;-75
2022/04/25 13:10:30;;;;;;;3.78;1.25;;;;;;;;;;5086131;28;20024;-77
2022/04/25 13:12:56;;;;;;;4.97;1.45;;;;;;;;;;5086207;28;20032;-76
2022/04/25 13:15:29;;;;;;;5.88;1.48;;;;;;;;;;5086272;28;20032;-75
2022/04/25 13:17:54;;;;;;;3.78;1.20;;;;;;;;;;5086233;28;20110;-75
2022/04/25 13:20:21;;;;;;;5.60;1.20;;;;;;;;;;5084706;28;21156;-75
2022/04/25 13:22:47;;;;;;;3.05;1.00;;;;;;;;;;5085987;28;20043;-78
2022/04/25 13:25:14;;;;;;;3.83;1.00;;;;;;;;;;5085139;28;20105;-75
2022/04/25 13:27:40;;;;;;;5.97;1.45;;;;;;;;;;5085082;28;20024;-76
2022/04/25 13:30:07;;;;;;;4.18;1.60;;;;;;;;;;5084767;28;20024;-76
2022/04/25 13:32:32;;;;;;;4.13;2.03;;;;;;;;;;5083708;28;20032;-74
2022/04/25 13:34:58;;;;;;;4.78;1.45;;;;;;;;;;5084414;28;20035;-79
2022/04/25 13:37:23;;;;;;;6.22;1.40;;;;;;;;;;5083732;28;20025;-75
2022/04/25 13:39:49;;;;;;;10.38;7.38;;;;;;;;;;5085354;28;20035;-76
2022/04/25 13:42:14;;;;;;;8.98;5.78;;;;;;;;;;5085599;28;20089;-76
2022/04/25 13:44:40;;;;;;;15.68;11.02;;;;;;;;;;5084519;28;20467;-75
2022/04/25 13:47:06;;;;;;;10.63;6.22;;;;;;;;;;5084414;28;20266;-74
2022/04/25 13:49:31;;;;;;;13.52;2.47;;;;;;;;;;5084891;28;20024;-74
2022/04/25 13:51:57;;;;;;;6.40;4.03;;;;;;;;;;5084426;28;20123;-77
2022/04/25 13:54:22;;;;;;;8.68;5.40;;;;;;;;;;5084228;28;20028;-76
2022/04/25 13:56:47;;;;;;;9.80;7.18;;;;;;;;;;5084688;28;20032;-75
2022/04/25 13:59:13;;;;;;;39.50;30.60;;;;;;;;;;5083932;28;20028;-76
2022/04/25 14:01:38;;;;;;;8.77;3.08;;;;;;;;;;5083255;28;20060;-76
2022/04/25 14:04:04;;;;;;;3.85;1.40;;;;;;;;;;5084343;28;20027;-73
2022/04/25 14:06:30;;;;;;;6.10;2.60;;;;;;;;;;5084843;28;20020;-76
2022/04/25 14:08:57;;;;;;;8.20;3.78;;;;;;;;;;5085218;28;20454;-74
2022/04/25 14:11:24;;;;;;;3.78;2.22;;;;;;;;;;5084504;28;20086;-74
2022/04/25 14:13:49;;;;;;;5.53;2.17;;;;;;;;;;5083794;28;20032;-74
2022/04/25 14:16:15;;;;;;;3.85;1.27;;;;;;;;;;5067023;28;20093;-75
2022/04/25 14:18:40;;;;;;;7.25;1.75;;;;;;;;;;5084691;28;20103;-77
2022/04/25 14:21:09;;;;;;;1.48;0.90;;;;;;;;;;5082374;28;20024;-78
2022/04/25 14:23:34;;;;;;;4.60;2.63;;;;;;;;;;5084159;28;20033;-74
2022/04/25 14:26:03;;;;;;;6.97;4.35;;;;;;;;;;5084626;28;20020;-74
2022/04/25 14:28:29;;;;;;;5.28;2.60;;;;;;;;;;5082600;28;21032;-75
2022/04/25 14:30:54;;;;;;;8.70;2.25;;;;;;;;;;5083468;28;20059;-75
2022/04/25 14:33:19;;;;;;;4.15;1.35;;;;;;;;;;5084677;28;20046;-75
2022/04/25 14:35:45;;;;;;;3.58;1.50;;;;;;;;;;5084001;28;20116;-75
2022/04/25 14:38:10;;;;;;;3.65;1.52;;;;;;;;;;5083422;28;20027;-77
2022/04/25 14:40:35;;;;;;;3.60;1.27;;;;;;;;;;5084540;28;20388;-73
2022/04/25 14:43:01;;;;;;;2.95;1.63;;;;;;;;;;5083518;28;20085;-74
2022/04/25 14:45:27;;;;;;;1.92;1.10;;;;;;;;;;5084488;28;20035;-77
2022/04/25 14:47:53;;;;;;;2.63;1.40;;;;;;;;;;5084057;28;20039;-76
2022/04/25 14:55:47;;;;;;;1.70;0.93;;;;;;;;;;5082813;28;20098;-77
2022/04/25 14:58:13;;;;;;;3.90;0.80;;;;;;;;;;5082620;28;20028;-77
2022/04/25 15:00:41;;;;;;;2.88;1.50;;;;;;;;;;5082899;28;20088;-76
2022/04/25 15:03:06;;;;;;;2.08;0.95;;;;;;;;;;5082476;28;20374;-76
2022/04/25 15:05:31;;;;;;;2.67;1.17;;;;;;;;;;5082966;28;20044;-76
2022/04/25 15:07:57;;;;;;;2.92;1.52;;;;;;;;;;5082002;28;20024;-77
2022/04/25 15:10:22;;;;;;;2.97;1.48;;;;;;;;;;5082950;28;20481;-76
2022/04/25 15:12:47;;;;;;;4.18;1.63;;;;;;;;;;5083558;28;20032;-76
2022/04/25 15:15:13;;;;;;;3.90;1.45;;;;;;;;;;5083920;28;20950;-76
2022/04/25 15:17:38;;;;;;;3.97;1.30;;;;;;;;;;5082768;28;20089;-75